Time;durP1;ratioP1;P1;durP2;ratioP2;P2;SDS_P1;SDS_P2;PMS_P1;PMS_P2;Temp;Humidity;BMP_temperature;BMP_pressure;BME280_temperature;BME280_humidity;BME280_pressure;Samples;Min_cycle;Max_cycle;Signal;HPM_P1;HPM_P2
2023/04/15 00:01:23;;;;;;;6.65;3.08;;;8.80;99.90;;;;;;5060361;28;20041;-36
2023/04/15 00:03:54;;;;;;;7.65;2.50;;;8.70;99.90;;;;;;5061459;28;20058;-36
2023/04/15 00:06:23;;;;;;;6.78;2.13;;;8.70;99.90;;;;;;5063101;28;20425;-36
2023/04/15 00:08:49;;;;;;;6.40;2.45;;;8.70;99.90;;;;;;5066631;28;20044;-35
2023/04/15 00:11:15;;;;;;;6.28;2.38;;;8.60;99.90;;;;;;5064379;28;20544;-36
2023/04/15 00:13:42;;;;;;;7.28;2.63;;;8.60;99.90;;;;;;5062069;28;20060;-36
2023/04/15 00:16:08;;;;;;;4.70;2.30;;;8.60;99.90;;;;;;5064273;28;20044;-36
2023/04/15 00:18:34;;;;;;;6.78;2.20;;;8.50;99.90;;;;;;5063632;28;20553;-35
2023/04/15 00:21:00;;;;;;;5.28;2.20;;;8.50;99.90;;;;;;5069045;28;20125;-35
2023/04/15 00:23:27;;;;;;;5.35;2.42;;;8.50;99.90;;;;;;5066996;28;20048;-36
2023/04/15 00:25:53;;;;;;;4.72;2.20;;;8.50;99.90;;;;;;5066512;28;20056;-35
2023/04/15 00:28:19;;;;;;;5.47;2.67;;;8.50;99.90;;;;;;5068778;28;20044;-37
2023/04/15 00:30:46;;;;;;;5.20;2.47;;;8.50;99.90;;;;;;5070080;28;20052;-35
2023/04/15 00:33:12;;;;;;;6.97;2.15;;;8.50;99.90;;;;;;5066367;28;20053;-36
2023/04/15 00:35:38;;;;;;;6.20;2.33;;;8.40;99.90;;;;;;5066842;28;20098;-35
2023/04/15 00:38:08;;;;;;;5.97;2.22;;;8.40;99.90;;;;;;5069210;28;20748;-35
2023/04/15 00:40:34;;;;;;;5.75;2.85;;;8.40;99.90;;;;;;5069429;28;20080;-36
2023/04/15 00:43:01;;;;;;;3.88;1.98;;;8.40;99.90;;;;;;5066699;28;20075;-36
2023/04/15 00:45:29;;;;;;;6.78;2.53;;;8.30;99.90;;;;;;5063248;28;20053;-35
2023/04/15 00:47:55;;;;;;;6.40;2.20;;;8.30;99.90;;;;;;5069306;28;20565;-36
2023/04/15 00:50:21;;;;;;;4.55;2.40;;;8.20;99.90;;;;;;5069239;28;20044;-36
2023/04/15 00:52:47;;;;;;;6.53;1.83;;;8.20;99.90;;;;;;5066837;28;20056;-35
2023/04/15 00:55:13;;;;;;;4.72;2.30;;;8.20;99.90;;;;;;5063689;28;20406;-35
2023/04/15 00:57:39;;;;;;;6.15;2.58;;;8.10;99.90;;;;;;5071507;28;20048;-35
2023/04/15 01:00:10;;;;;;;8.63;2.53;;;8.10;99.90;;;;;;5065559;28;20063;-35
2023/04/15 01:02:36;;;;;;;5.88;2.50;;;8.10;99.90;;;;;;5049521;28;20060;-35
2023/04/15 01:05:06;;;;;;;7.05;2.30;;;8.00;99.90;;;;;;5069279;28;20384;-35
2023/04/15 01:07:32;;;;;;;6.47;2.85;;;8.00;99.90;;;;;;5068390;28;20049;-35
2023/04/15 01:09:58;;;;;;;4.90;2.17;;;7.90;99.90;;;;;;5067832;28;20044;-35
2023/04/15 01:12:26;;;;;;;5.03;2.33;;;7.90;99.90;;;;;;5065546;28;20394;-36
2023/04/15 01:14:53;;;;;;;4.43;2.90;;;7.80;99.90;;;;;;5066381;28;20052;-35
2023/04/15 01:17:19;;;;;;;4.47;2.67;;;7.80;99.90;;;;;;5069785;28;20509;-35
2023/04/15 01:19:45;;;;;;;4.85;2.13;;;7.80;99.90;;;;;;5065135;28;20044;-35
2023/04/15 01:22:11;;;;;;;4.30;2.00;;;7.80;99.90;;;;;;5068429;28;20478;-35
2023/04/15 01:24:37;;;;;;;6.85;2.95;;;7.70;99.90;;;;;;5068539;28;20133;-35
2023/04/15 01:27:04;;;;;;;4.75;2.20;;;7.70;99.90;;;;;;5069359;28;20049;-35
2023/04/15 01:29:31;;;;;;;4.75;2.50;;;7.80;99.90;;;;;;5065352;28;20519;-36
2023/04/15 01:31:58;;;;;;;5.80;2.42;;;7.60;99.90;;;;;;5068997;28;20486;-36
2023/04/15 01:34:23;;;;;;;9.07;3.33;;;7.60;99.90;;;;;;5044664;28;20205;-36
2023/04/15 01:36:50;;;;;;;5.38;2.35;;;7.60;99.90;;;;;;5068327;28;20147;-36
2023/04/15 01:39:15;;;;;;;5.85;2.80;;;7.50;99.90;;;;;;5069204;28;20055;-36
2023/04/15 01:41:41;;;;;;;6.13;2.40;;;7.50;99.90;;;;;;5069035;28;20048;-37
2023/04/15 01:44:07;;;;;;;7.07;2.70;;;7.50;99.90;;;;;;5065799;28;20051;-36
2023/04/15 01:46:33;;;;;;;7.32;2.83;;;7.40;99.90;;;;;;5065576;28;20122;-36
2023/04/15 01:48:59;;;;;;;4.13;2.22;;;7.40;99.90;;;;;;5068309;28;20080;-36
2023/04/15 01:51:26;;;;;;;5.53;2.45;;;7.40;99.90;;;;;;5068746;28;20575;-36
2023/04/15 01:53:51;;;;;;;5.07;2.63;;;7.40;99.90;;;;;;5062444;28;20074;-36
2023/04/15 01:56:17;;;;;;;5.03;2.25;;;7.40;99.90;;;;;;5067530;28;20107;-36
2023/04/15 01:58:43;;;;;;;6.10;2.58;;;7.30;99.90;;;;;;5064326;28;20059;-36
2023/04/15 02:01:10;;;;;;;5.35;2.47;;;7.30;99.90;;;;;;5065576;28;20460;-36
2023/04/15 02:03:36;;;;;;;7.70;3.45;;;7.30;99.90;;;;;;5065573;28;20433;-36
2023/04/15 02:06:03;;;;;;;8.13;3.00;;;7.20;99.90;;;;;;5062273;28;20460;-36
2023/04/15 02:08:29;;;;;;;5.30;2.22;;;7.20;99.90;;;;;;5067957;28;20448;-36
2023/04/15 02:10:54;;;;;;;6.90;2.95;;;7.20;99.90;;;;;;5066492;28;20056;-36
2023/04/15 02:13:20;;;;;;;5.40;2.67;;;7.10;99.90;;;;;;5067157;28;20056;-36
2023/04/15 02:15:47;;;;;;;6.90;2.78;;;7.10;99.90;;;;;;5065768;28;20052;-35
2023/04/15 02:18:14;;;;;;;5.93;2.30;;;7.10;99.90;;;;;;5065142;28;20053;-36
2023/04/15 02:20:39;;;;;;;5.53;2.83;;;7.00;99.90;;;;;;5065791;28;20053;-36
2023/04/15 02:23:07;;;;;;;7.50;3.20;;;7.00;99.90;;;;;;5068046;28;20051;-36
2023/04/15 02:25:33;;;;;;;6.07;2.70;;;7.00;99.90;;;;;;5066285;28;20053;-36
2023/04/15 02:27:58;;;;;;;5.57;2.45;;;6.90;99.90;;;;;;5065978;28;20048;-36
2023/04/15 02:30:24;;;;;;;7.68;3.17;;;7.00;99.90;;;;;;5066150;28;20052;-37
2023/04/15 02:32:50;;;;;;;4.20;2.45;;;6.90;99.90;;;;;;5067033;28;20490;-36
2023/04/15 02:35:18;;;;;;;5.53;2.72;;;6.80;99.90;;;;;;5060998;28;20167;-36
2023/04/15 02:37:44;;;;;;;7.93;2.85;;;6.80;99.90;;;;;;5064920;28;20130;-36
2023/04/15 02:40:11;;;;;;;9.07;2.90;;;6.80;99.90;;;;;;5067948;28;20056;-36
2023/04/15 02:42:41;;;;;;;5.47;2.42;;;6.80;99.90;;;;;;5064089;28;20064;-35
2023/04/15 02:45:07;;;;;;;5.40;2.80;;;6.80;99.90;;;;;;5064497;28;20064;-35
2023/04/15 02:47:34;;;;;;;7.57;3.20;;;6.80;99.90;;;;;;5067033;28;20508;-36
2023/04/15 02:50:03;;;;;;;6.38;2.95;;;6.80;99.90;;;;;;5064345;28;20410;-36
2023/04/15 02:52:30;;;;;;;9.15;3.05;;;6.70;99.90;;;;;;5066070;28;20052;-36
2023/04/15 02:54:59;;;;;;;6.03;2.95;;;6.60;99.90;;;;;;5057433;28;20482;-36
2023/04/15 02:57:26;;;;;;;7.05;3.38;;;6.60;99.90;;;;;;5065887;28;20086;-36
2023/04/15 02:59:52;;;;;;;5.30;2.88;;;6.60;99.90;;;;;;5063420;28;20047;-35
2023/04/15 03:02:18;;;;;;;7.25;3.58;;;6.60;99.90;;;;;;5066811;28;20418;-35
2023/04/15 03:04:43;;;;;;;4.43;2.95;;;6.50;99.90;;;;;;5066316;28;20509;-35
2023/04/15 03:07:09;;;;;;;8.05;2.90;;;6.50;99.90;;;;;;5067906;28;20159;-37
2023/04/15 03:09:35;;;;;;;6.55;3.40;;;6.60;99.90;;;;;;5066622;28;20136;-35
2023/04/15 03:12:01;;;;;;;6.57;2.88;;;6.50;99.90;;;;;;5065279;28;20053;-38
2023/04/15 03:14:27;;;;;;;5.57;2.78;;;6.50;99.90;;;;;;5055236;28;20056;-35
2023/04/15 03:16:52;;;;;;;5.40;2.83;;;6.40;99.90;;;;;;5066619;28;20572;-35
2023/04/15 03:19:18;;;;;;;6.22;3.13;;;6.40;99.90;;;;;;5064988;28;20060;-35
2023/04/15 03:21:43;;;;;;;6.45;3.58;;;6.40;99.90;;;;;;5058869;28;20418;-36
2023/04/15 03:24:09;;;;;;;7.40;3.40;;;6.40;99.90;;;;;;5062933;28;20151;-34
2023/04/15 03:26:35;;;;;;;6.15;3.05;;;6.40;99.90;;;;;;5066077;28;20052;-35
2023/04/15 03:29:01;;;;;;;7.47;3.58;;;6.30;99.90;;;;;;5062609;28;20056;-35
2023/04/15 03:31:27;;;;;;;5.47;3.20;;;;;;;;;;5068059;28;20537;-35
2023/04/15 03:33:52;;;;;;;7.50;2.90;;;6.30;99.90;;;;;;5063747;28;20095;-36
2023/04/15 03:36:18;;;;;;;6.57;3.30;;;6.20;99.90;;;;;;5066117;28;20086;-36
2023/04/15 03:38:44;;;;;;;6.25;3.20;;;6.20;99.90;;;;;;5066023;28;20052;-37
2023/04/15 03:41:10;;;;;;;6.50;3.55;;;6.20;99.90;;;;;;5063767;28;20053;-36
2023/04/15 03:43:36;;;;;;;5.68;3.33;;;6.20;99.90;;;;;;5065337;28;20053;-37
2023/04/15 03:46:01;;;;;;;8.90;3.72;;;6.10;99.90;;;;;;5064385;28;23155;-36
2023/04/15 03:48:27;;;;;;;7.75;3.78;;;6.10;99.90;;;;;;5065385;28;20052;-37
2023/04/15 03:50:53;;;;;;;7.88;3.60;;;6.10;99.90;;;;;;5065347;28;20074;-37
2023/04/15 03:53:20;;;;;;;6.65;3.40;;;6.10;99.90;;;;;;5062696;28;20061;-38
2023/04/15 03:55:45;;;;;;;7.03;3.33;;;6.10;99.90;;;;;;5069126;28;20073;-37
2023/04/15 03:58:11;;;;;;;6.70;3.22;;;6.10;99.90;;;;;;5068171;28;20044;-37
2023/04/15 04:00:41;;;;;;;5.88;3.08;;;6.00;99.90;;;;;;5064908;28;20056;-37
2023/04/15 04:03:07;;;;;;;10.45;3.20;;;6.00;99.90;;;;;;5065457;28;20060;-36
2023/04/15 04:05:35;;;;;;;7.70;3.97;;;6.00;99.90;;;;;;5070222;28;20060;-35
2023/04/15 04:08:02;;;;;;;8.63;3.85;;;6.00;99.90;;;;;;5069307;28;20088;-35
2023/04/15 04:10:28;;;;;;;7.45;4.07;;;6.00;99.90;;;;;;5068767;28;20079;-35
2023/04/15 04:12:53;;;;;;;7.10;3.90;;;6.00;99.90;;;;;;5066927;28;20036;-36
2023/04/15 04:15:19;;;;;;;6.45;3.65;;;6.00;99.90;;;;;;5066896;28;20052;-36
2023/04/15 04:17:45;;;;;;;10.43;3.55;;;6.00;99.90;;;;;;5069712;28;20118;-35
2023/04/15 04:20:11;;;;;;;6.90;4.05;;;5.90;99.90;;;;;;5064124;28;20083;-35
2023/04/15 04:22:40;;;;;;;12.18;4.38;;;5.90;99.90;;;;;;5062638;28;20048;-35
2023/04/15 04:25:07;;;;;;;6.38;3.97;;;5.90;99.90;;;;;;5067598;28;20049;-36
2023/04/15 04:27:33;;;;;;;7.72;4.15;;;5.90;99.90;;;;;;5069342;28;20076;-35
2023/04/15 04:29:59;;;;;;;11.32;4.00;;;5.80;99.90;;;;;;5065788;28;20049;-36
2023/04/15 04:32:25;;;;;;;10.05;4.38;;;5.80;99.90;;;;;;5069427;28;20559;-35
2023/04/15 04:34:50;;;;;;;7.35;4.22;;;5.80;99.90;;;;;;5061942;28;20068;-38
2023/04/15 04:37:16;;;;;;;7.65;4.18;;;5.80;99.90;;;;;;5064862;28;20056;-35
2023/04/15 04:39:42;;;;;;;11.13;4.70;;;5.70;99.90;;;;;;5069082;28;20129;-35
2023/04/15 04:42:07;;;;;;;9.30;4.38;;;5.70;99.90;;;;;;5065844;28;20048;-34
2023/04/15 04:44:33;;;;;;;8.82;4.65;;;5.70;99.90;;;;;;5062183;28;20052;-34
2023/04/15 04:46:59;;;;;;;6.88;3.72;;;5.70;99.90;;;;;;5065677;28;20044;-35
2023/04/15 04:49:24;;;;;;;7.88;3.70;;;5.70;99.90;;;;;;5067485;28;20410;-36
2023/04/15 04:51:51;;;;;;;8.90;4.82;;;5.60;99.90;;;;;;5065904;28;20060;-35
2023/04/15 04:54:16;;;;;;;10.20;4.30;;;5.60;99.90;;;;;;5065834;28;20056;-35
2023/04/15 04:56:42;;;;;;;8.85;4.55;;;5.60;99.90;;;;;;5070020;28;20512;-37
2023/04/15 04:59:08;;;;;;;8.48;4.05;;;5.60;99.90;;;;;;5064432;28;20135;-37
2023/04/15 05:01:34;;;;;;;10.13;4.03;;;5.60;99.90;;;;;;5061947;28;20719;-35
2023/04/15 05:04:00;;;;;;;9.02;4.05;;;5.50;99.90;;;;;;5062154;28;20077;-36
2023/04/15 05:06:26;;;;;;;9.77;4.78;;;5.60;99.90;;;;;;5067849;28;20446;-35
2023/04/15 05:08:52;;;;;;;9.85;5.20;;;5.50;99.90;;;;;;5069673;28;20036;-36
2023/04/15 05:11:17;;;;;;;8.10;4.05;;;5.50;99.90;;;;;;5064382;28;20433;-35
2023/04/15 05:13:43;;;;;;;9.20;4.50;;;5.60;99.90;;;;;;5064264;28;20048;-36
2023/04/15 05:16:09;;;;;;;11.73;5.10;;;5.60;99.90;;;;;;5065991;28;20045;-35
2023/04/15 05:18:35;;;;;;;8.50;4.13;;;5.60;99.90;;;;;;5067254;28;20044;-35
2023/04/15 05:21:01;;;;;;;6.88;3.75;;;5.60;99.90;;;;;;5065621;28;20048;-36
2023/04/15 05:23:27;;;;;;;10.77;5.22;;;5.60;99.90;;;;;;5063595;28;20044;-35
2023/04/15 05:25:53;;;;;;;7.97;4.55;;;5.60;99.90;;;;;;5065927;28;20055;-35
2023/04/15 05:28:18;;;;;;;8.65;4.43;;;5.60;99.90;;;;;;5069124;28;20141;-36
2023/04/15 05:30:44;;;;;;;8.20;4.13;;;5.60;99.90;;;;;;5063410;28;20052;-36
2023/04/15 05:33:10;;;;;;;10.52;5.55;;;5.60;99.90;;;;;;5063590;28;20084;-36
2023/04/15 05:35:36;;;;;;;7.93;4.85;;;5.70;99.90;;;;;;5067870;28;20490;-36
2023/04/15 05:38:02;;;;;;;9.85;4.93;;;5.70;99.90;;;;;;5062193;28;20048;-36
2023/04/15 05:40:29;;;;;;;7.78;5.15;;;5.80;99.90;;;;;;5068764;28;20518;-36
2023/04/15 05:42:55;;;;;;;9.35;4.53;;;5.80;99.90;;;;;;5068012;28;20127;-36
2023/04/15 05:45:21;;;;;;;8.63;4.60;;;5.90;99.90;;;;;;5061256;28;20057;-35
2023/04/15 05:47:49;;;;;;;10.35;4.90;;;5.90;99.90;;;;;;5059749;28;20411;-36
2023/04/15 05:50:14;;;;;;;9.30;4.88;;;6.00;99.90;;;;;;5063470;28;20080;-36
2023/04/15 05:52:40;;;;;;;7.13;4.03;;;6.10;99.90;;;;;;5070584;28;20053;-36
2023/04/15 05:55:06;;;;;;;13.50;5.40;;;6.10;99.90;;;;;;5061171;28;20037;-37
2023/04/15 05:57:32;;;;;;;10.05;4.70;;;6.20;99.90;;;;;;5064532;28;20052;-36
2023/04/15 05:59:57;;;;;;;9.50;5.00;;;6.30;99.90;;;;;;5065054;28;20052;-37
2023/04/15 06:02:23;;;;;;;8.15;4.85;;;6.40;99.90;;;;;;5063888;28;20133;-36
2023/04/15 06:04:49;;;;;;;9.50;5.63;;;6.40;99.90;;;;;;5062332;28;20048;-36
2023/04/15 06:07:14;;;;;;;9.05;4.30;;;6.50;99.90;;;;;;5066484;28;20048;-36
2023/04/15 06:09:40;;;;;;;9.80;5.38;;;6.60;99.90;;;;;;5069848;28;20052;-37
2023/04/15 06:12:10;;;;;;;7.95;4.65;;;6.60;99.90;;;;;;5065361;28;20052;-37
2023/04/15 06:14:37;;;;;;;10.50;4.88;;;6.70;99.90;;;;;;5064751;28;20053;-36
2023/04/15 06:17:03;;;;;;;11.48;5.18;;;6.70;99.90;;;;;;5047312;28;20044;-37
2023/04/15 06:19:29;;;;;;;9.35;5.40;;;6.70;99.90;;;;;;5065902;28;20122;-36
2023/04/15 06:21:54;;;;;;;7.93;4.47;;;6.80;99.90;;;;;;5065754;28;20467;-36
2023/04/15 06:24:20;;;;;;;7.47;4.50;;;6.80;99.90;;;;;;5060245;28;20059;-36
2023/04/15 06:26:46;;;;;;;8.93;5.10;;;6.80;99.90;;;;;;5067971;28;20065;-37
2023/04/15 06:29:11;;;;;;;8.38;4.30;;;6.80;99.90;;;;;;5057975;28;20201;-37
2023/04/15 06:31:37;;;;;;;9.60;4.43;;;6.80;99.90;;;;;;5067070;28;20075;-36
2023/04/15 06:34:03;;;;;;;8.77;5.10;;;6.80;99.90;;;;;;5061883;28;20545;-36
2023/04/15 06:36:28;;;;;;;8.48;4.32;;;6.80;99.90;;;;;;5067548;28;20056;-36
2023/04/15 06:38:55;;;;;;;7.50;4.25;;;6.90;99.90;;;;;;5062265;28;20072;-36
2023/04/15 06:41:21;;;;;;;8.95;4.72;;;6.90;99.90;;;;;;5066269;28;20496;-36
2023/04/15 06:43:46;;;;;;;8.77;4.40;;;7.00;99.90;;;;;;5061125;28;20055;-36
2023/04/15 06:46:12;;;;;;;7.80;4.68;;;7.00;99.90;;;;;;5064009;28;20056;-37
2023/04/15 06:48:37;;;;;;;7.20;4.18;;;7.10;99.90;;;;;;5062618;28;20049;-37
2023/04/15 06:51:03;;;;;;;7.47;4.45;;;7.10;99.90;;;;;;5061235;28;20102;-36
2023/04/15 06:53:29;;;;;;;7.70;4.32;;;7.20;99.90;;;;;;5063702;28;20052;-36
2023/04/15 06:55:54;;;;;;;7.57;4.20;;;7.30;99.90;;;;;;5067536;28;20655;-41
2023/04/15 06:58:20;;;;;;;9.95;4.53;;;7.40;99.90;;;;;;5063329;28;20048;-41
2023/04/15 07:00:46;;;;;;;8.23;4.75;;;7.50;99.90;;;;;;5061408;28;20052;-42
2023/04/15 07:03:12;;;;;;;6.72;3.78;;;7.60;99.90;;;;;;5059470;28;20071;-40
2023/04/15 07:05:38;;;;;;;7.22;3.92;;;7.70;99.90;;;;;;5055836;28;20075;-41
2023/04/15 07:08:04;;;;;;;11.35;5.65;;;7.80;99.90;;;;;;5061799;28;20052;-41
2023/04/15 07:10:30;;;;;;;13.70;5.85;;;8.00;99.90;;;;;;5064784;28;20410;-41
2023/04/15 07:12:56;;;;;;;11.43;4.78;;;8.10;99.90;;;;;;5063926;28;20059;-41
2023/04/15 07:15:22;;;;;;;12.20;4.47;;;8.20;99.90;;;;;;5064434;28;20041;-41
2023/04/15 07:17:48;;;;;;;10.20;4.63;;;8.30;99.90;;;;;;5064702;28;20101;-41
2023/04/15 07:20:13;;;;;;;8.77;4.55;;;8.40;99.90;;;;;;5066367;28;20131;-40
2023/04/15 07:22:39;;;;;;;10.00;4.13;;;8.50;99.90;;;;;;5065599;28;20074;-41
2023/04/15 07:25:06;;;;;;;9.77;4.43;;;8.60;99.90;;;;;;5066409;28;20044;-41
2023/04/15 07:27:32;;;;;;;9.95;4.78;;;8.60;99.90;;;;;;5065031;28;20052;-44
2023/04/15 07:29:58;;;;;;;10.13;5.03;;;8.70;99.90;;;;;;5062943;28;20054;-37
2023/04/15 07:32:23;;;;;;;9.27;4.25;;;8.70;99.90;;;;;;5062725;28;20398;-37
2023/04/15 07:34:49;;;;;;;7.78;4.50;;;8.80;99.90;;;;;;5064694;28;20044;-37
2023/04/15 07:37:15;;;;;;;6.75;3.95;;;8.80;99.90;;;;;;5065139;28;20044;-37
2023/04/15 07:39:41;;;;;;;7.28;3.80;;;8.90;99.90;;;;;;5061689;28;20048;-37
2023/04/15 07:42:07;;;;;;;8.60;3.88;;;8.90;99.90;;;;;;5065834;28;20059;-37
2023/04/15 07:44:33;;;;;;;9.25;4.03;;;9.00;99.90;;;;;;5065447;28;20045;-38
2023/04/15 07:46:58;;;;;;;10.93;4.47;;;9.10;99.90;;;;;;5044077;28;20059;-37
2023/04/15 07:49:24;;;;;;;9.48;4.13;;;9.20;99.90;;;;;;5061127;28;20056;-37
2023/04/15 07:51:50;;;;;;;8.40;4.15;;;9.30;99.90;;;;;;5060115;28;20114;-37
2023/04/15 07:54:16;;;;;;;7.15;3.95;;;9.40;99.90;;;;;;5064653;28;20094;-37
2023/04/15 07:56:41;;;;;;;8.70;3.70;;;9.60;99.90;;;;;;5067485;28;20076;-37
2023/04/15 07:59:08;;;;;;;5.72;3.13;;;9.70;99.90;;;;;;5064914;28;20106;-37
2023/04/15 08:01:34;;;;;;;6.22;3.22;;;9.90;99.90;;;;;;5059371;28;20053;-37
2023/04/15 08:04:00;;;;;;;8.43;3.67;;;10.00;99.90;;;;;;5058805;28;20059;-37
2023/04/15 08:06:26;;;;;;;6.43;2.90;;;10.10;99.90;;;;;;5060279;28;20048;-37
2023/04/15 08:08:53;;;;;;;5.65;2.95;;;10.20;99.90;;;;;;5059267;28;20090;-37
2023/04/15 08:11:19;;;;;;;5.50;2.85;;;10.20;99.90;;;;;;5054384;28;20052;-37
2023/04/15 08:13:45;;;;;;;9.10;3.92;;;10.30;99.90;;;;;;5059519;28;20056;-37
2023/04/15 08:16:23;;;;;;;7.20;3.20;;;10.30;99.90;;;;;;5063980;28;20139;-37
2023/04/15 08:18:50;;;;;;;6.35;3.63;;;10.30;99.90;;;;;;5060031;28;20133;-37
2023/04/15 08:21:17;;;;;;;7.72;3.58;;;10.30;99.90;;;;;;5065293;28;20047;-38
2023/04/15 08:23:44;;;;;;;8.07;3.13;;;10.40;99.90;;;;;;5058694;28;20037;-36
2023/04/15 08:26:10;;;;;;;7.07;3.30;;;10.40;99.90;;;;;;5058238;28;20063;-37
2023/04/15 08:28:37;;;;;;;7.00;3.47;;;10.40;99.90;;;;;;5062202;28;20048;-38
2023/04/15 08:31:03;;;;;;;6.78;2.83;;;10.40;99.90;;;;;;5062885;28;20131;-38
2023/04/15 08:33:29;;;;;;;7.93;3.83;;;10.40;99.90;;;;;;5057857;28;20079;-36
2023/04/15 08:35:55;;;;;;;9.45;3.22;;;10.40;99.90;;;;;;5065324;28;20063;-36
2023/04/15 08:38:21;;;;;;;9.65;2.72;;;10.50;99.90;;;;;;5059845;28;20053;-36
2023/04/15 08:40:47;;;;;;;6.75;2.97;;;10.50;99.90;;;;;;5062782;28;20521;-37
2023/04/15 08:43:20;;;;;;;9.80;3.35;;;10.60;99.90;;;;;;5060134;28;20048;-37
2023/04/15 08:45:47;;;;;;;5.30;2.90;;;10.70;99.90;;;;;;5063814;28;20057;-39
2023/04/15 08:48:17;;;;;;;5.28;2.78;;;10.80;99.90;;;;;;5065992;28;20041;-41
2023/04/15 08:50:44;;;;;;;7.57;2.92;;;10.90;99.90;;;;;;5061993;28;20498;-41
2023/04/15 08:53:10;;;;;;;5.07;2.55;;;11.10;99.90;;;;;;5060156;28;20051;-37
2023/04/15 08:55:43;;;;;;;5.60;2.72;;;11.20;99.90;;;;;;5060881;28;20084;-37
2023/04/15 08:58:10;;;;;;;4.82;2.10;;;11.30;99.90;;;;;;5039783;28;20045;-41
2023/04/15 09:00:37;;;;;;;4.47;2.22;;;11.30;99.90;;;;;;5064200;28;20137;-36
2023/04/15 09:03:04;;;;;;;5.05;2.03;;;11.30;99.90;;;;;;5065539;28;20465;-36
2023/04/15 09:05:32;;;;;;;4.32;1.52;;;11.30;99.90;;;;;;5065583;28;20131;-36
2023/04/15 09:07:58;;;;;;;6.63;2.17;;;11.40;99.90;;;;;;5066936;28;20372;-36
2023/04/15 09:10:24;;;;;;;5.40;2.00;;;11.40;99.90;;;;;;5064958;28;20049;-37
2023/04/15 09:12:49;;;;;;;4.15;1.60;;;11.60;99.90;;;;;;5065871;28;20048;-37
2023/04/15 09:15:16;;;;;;;4.20;1.90;;;11.70;99.90;;;;;;5060096;28;20146;-36
2023/04/15 09:17:45;;;;;;;4.70;2.08;;;11.80;99.90;;;;;;5056979;28;21201;-35
2023/04/15 09:20:12;;;;;;;5.20;2.00;;;11.80;99.90;;;;;;5075008;28;20057;-35
2023/04/15 09:22:39;;;;;;;3.75;1.63;;;11.70;99.90;;;;;;5067311;28;20387;-36
2023/04/15 09:25:14;;;;;;;6.00;2.50;;;11.80;99.90;;;;;;5062356;28;20479;-35
2023/04/15 09:27:49;;;;;;;3.60;1.85;;;11.80;99.90;;;;;;5065535;28;20056;-35
2023/04/15 09:30:16;;;;;;;4.35;1.85;;;11.90;99.90;;;;;;5066406;28;20486;-36
2023/04/15 09:33:00;;;;;;;4.93;1.70;;;12.00;99.90;;;;;;5060023;28;20121;-36
2023/04/15 09:35:27;;;;;;;4.20;1.52;;;12.20;99.90;;;;;;5068069;28;20127;-35
2023/04/15 09:38:00;;;;;;;5.53;2.28;;;12.20;99.90;;;;;;5050717;28;20139;-37
2023/04/15 09:40:40;;;;;;;5.63;2.03;;;12.10;99.90;;;;;;5069010;28;20506;-35
2023/04/15 09:43:08;;;;;;;5.40;1.75;;;12.10;99.90;;;;;;5064165;28;20057;-36
2023/04/15 09:45:35;;;;;;;4.32;2.00;;;12.00;99.90;;;;;;5062662;28;20417;-35
2023/04/15 09:48:21;;;;;;;3.75;1.75;;;12.00;99.90;;;;;;5063617;28;20573;-35
2023/04/15 09:50:48;;;;;;;3.38;1.35;;;12.00;99.90;;;;;;5057323;28;20567;-36
2023/04/15 09:53:19;;;;;;;3.60;1.60;;;11.80;99.90;;;;;;5060787;28;20051;-35
2023/04/15 09:55:56;;;;;;;4.50;1.80;;;11.80;99.90;;;;;;5059964;28;22175;-36
2023/04/15 09:58:28;;;;;;;3.78;1.60;;;11.70;99.90;;;;;;5064501;28;20087;-36
2023/04/15 10:00:55;;;;;;;4.68;2.20;;;11.60;99.90;;;;;;5063011;28;20040;-35
2023/04/15 10:03:23;;;;;;;3.88;1.50;;;11.50;99.90;;;;;;5065915;28;20082;-35
2023/04/15 10:05:52;;;;;;;3.30;1.60;;;11.40;99.90;;;;;;5058762;28;20506;-35
2023/04/15 10:08:23;;;;;;;5.65;1.98;;;11.30;99.90;;;;;;5055571;28;20053;-37
2023/04/15 10:10:53;;;;;;;4.70;1.60;;;11.30;99.90;;;;;;5062502;28;20083;-37
2023/04/15 10:13:21;;;;;;;3.30;1.27;;;11.20;99.90;;;;;;5061372;28;20417;-36
2023/04/15 10:15:54;;;;;;;2.47;1.08;;;11.20;99.90;;;;;;5067313;28;20532;-35
2023/04/15 10:18:22;;;;;;;2.65;0.88;;;11.20;99.90;;;;;;5066853;28;20520;-36
2023/04/15 10:20:48;;;;;;;4.95;1.30;;;11.20;99.90;;;;;;5054278;28;20048;-36
2023/04/15 10:23:15;;;;;;;3.05;1.10;;;11.20;99.90;;;;;;5065191;28;20486;-35
2023/04/15 10:25:42;;;;;;;5.32;1.35;;;11.20;99.90;;;;;;5062813;28;20192;-37
2023/04/15 10:28:08;;;;;;;10.68;1.20;;;11.10;99.90;;;;;;5062181;28;20114;-36
2023/04/15 10:30:35;;;;;;;5.00;1.20;;;11.10;99.90;;;;;;5059541;28;20052;-36
2023/04/15 10:33:02;;;;;;;3.67;1.40;;;11.10;99.90;;;;;;5062886;28;20486;-36
2023/04/15 10:35:30;;;;;;;3.28;1.48;;;11.10;99.90;;;;;;5062303;28;20041;-36
2023/04/15 10:37:55;;;;;;;3.20;1.15;;;11.30;99.90;;;;;;5063018;28;20060;-36
2023/04/15 10:40:27;;;;;;;4.57;0.93;;;11.50;99.90;;;;;;5066480;28;20044;-36
2023/04/15 10:42:54;;;;;;;2.35;0.90;;;11.80;99.90;;;;;;5061533;28;20044;-36
2023/04/15 10:45:20;;;;;;;3.10;1.00;;;12.00;99.90;;;;;;5066953;28;20082;-36
2023/04/15 10:47:50;;;;;;;3.85;0.90;;;12.30;99.90;;;;;;5064256;28;20131;-36
2023/04/15 10:50:18;;;;;;;4.57;1.20;;;12.50;99.90;;;;;;5064295;28;20045;-36
2023/04/15 10:52:43;;;;;;;3.05;0.77;;;12.60;99.90;;;;;;5059568;28;20110;-37
2023/04/15 10:55:09;;;;;;;2.45;1.00;;;12.70;99.90;;;;;;5061202;28;20070;-36
2023/04/15 10:57:37;;;;;;;4.53;1.05;;;12.70;99.90;;;;;;5058585;28;20078;-37
2023/04/15 11:00:12;;;;;;;2.08;0.60;;;12.80;99.90;;;;;;5059298;28;20576;-36
2023/04/15 11:02:43;;;;;;;1.67;0.60;;;12.90;99.90;;;;;;5061573;28;20137;-36
2023/04/15 11:05:10;;;;;;;1.73;0.57;;;13.00;99.90;;;;;;5063580;28;20052;-37
2023/04/15 11:07:57;;;;;;;1.30;0.50;;;13.10;99.90;;;;;;5067023;28;20110;-36
2023/04/15 11:10:29;;;;;;;1.38;0.32;;;13.10;99.90;;;;;;5062307;28;20620;-36
2023/04/15 11:13:08;;;;;;;1.40;0.55;;;13.10;99.90;;;;;;5062346;28;20123;-37
2023/04/15 11:15:37;;;;;;;2.47;0.50;;;13.10;99.90;;;;;;5059147;28;20537;-36
2023/04/15 11:18:12;;;;;;;1.23;0.30;;;13.10;99.90;;;;;;5057516;28;20486;-37
2023/04/15 11:20:46;;;;;;;2.65;0.50;;;13.10;99.90;;;;;;5059287;28;20513;-37
2023/04/15 11:23:16;;;;;;;3.63;0.50;;;13.10;99.90;;;;;;5063263;28;20048;-36
2023/04/15 11:25:42;;;;;;;5.70;0.60;;;13.00;99.90;;;;;;5060196;28;20129;-37
2023/04/15 11:28:08;;;;;;;0.80;0.30;;;12.80;99.90;;;;;;5061828;28;20063;-37
2023/04/15 11:30:36;;;;;;;3.17;0.50;;;12.70;99.90;;;;;;5059648;28;20056;-37
2023/04/15 11:33:07;;;;;;;1.55;0.70;;;12.60;99.90;;;;;;5064365;28;20052;-36
2023/04/15 11:35:33;;;;;;;1.83;0.55;;;12.60;99.90;;;;;;5058836;28;20454;-36
2023/04/15 11:38:10;;;;;;;0.85;0.40;;;12.50;99.90;;;;;;5070065;28;20051;-36
2023/04/15 11:40:36;;;;;;;4.93;0.68;;;12.40;99.90;;;;;;5041986;28;20660;-36
2023/04/15 11:43:19;;;;;;;1.73;0.60;;;12.40;99.90;;;;;;5063873;28;20068;-36
2023/04/15 11:46:02;;;;;;;2.03;0.50;;;12.30;99.90;;;;;;5060243;28;20060;-37
2023/04/15 11:48:30;;;;;;;5.03;1.20;;;12.30;99.90;;;;;;5056995;28;20135;-36
2023/04/15 11:51:03;;;;;;;3.35;0.60;;;12.30;99.90;;;;;;5059312;28;20080;-36
2023/04/15 11:53:46;;;;;;;2.00;0.60;;;12.40;99.90;;;;;;5066016;28;20134;-36
2023/04/15 11:56:20;;;;;;;1.95;0.52;;;12.30;99.90;;;;;;5041669;28;20052;-37
2023/04/15 11:58:49;;;;;;;4.82;0.60;;;12.30;99.90;;;;;;5055862;28;20413;-36
2023/04/15 12:01:15;;;;;;;1.17;0.40;;;12.30;99.90;;;;;;5060314;28;20223;-36
2023/04/15 12:03:42;;;;;;;2.08;0.50;;;12.20;99.90;;;;;;5061875;28;20147;-35
2023/04/15 12:06:18;;;;;;;1.00;0.50;;;12.10;99.90;;;;;;5061051;28;20063;-35
2023/04/15 12:09:02;;;;;;;1.25;0.55;;;12.00;99.90;;;;;;5059224;28;20064;-36
2023/04/15 12:11:37;;;;;;;2.33;0.50;;;11.90;99.90;;;;;;5059015;28;20087;-36
2023/04/15 12:14:20;;;;;;;2.20;0.60;;;11.90;99.90;;;;;;5066901;28;20136;-35
2023/04/15 12:16:49;;;;;;;3.20;0.60;;;11.90;99.90;;;;;;5062978;28;20078;-36
2023/04/15 12:19:21;;;;;;;2.30;0.57;;;11.80;99.90;;;;;;5066102;28;20048;-36
2023/04/15 12:21:48;;;;;;;1.58;0.57;;;11.80;99.90;;;;;;5062244;28;20052;-36
2023/04/15 12:24:14;;;;;;;1.15;0.50;;;11.80;99.90;;;;;;5067961;28;20405;-36
2023/04/15 12:26:49;;;;;;;2.65;0.40;;;11.60;99.90;;;;;;5063079;28;20056;-36
2023/04/15 12:29:16;;;;;;;2.55;0.60;;;11.60;99.90;;;;;;5070737;28;20060;-36
2023/04/15 12:31:54;;;;;;;1.38;0.65;;;11.60;99.90;;;;;;5061210;28;20151;-36
2023/04/15 12:34:31;;;;;;;2.20;0.45;;;11.60;99.90;;;;;;5064297;28;20498;-36
2023/04/15 12:36:58;;;;;;;3.13;0.52;;;11.60;99.90;;;;;;5069813;28;20040;-35
2023/04/15 12:39:26;;;;;;;5.43;0.70;;;11.60;99.90;;;;;;5069226;28;20062;-35
2023/04/15 12:41:52;;;;;;;5.50;1.10;;;11.50;99.90;;;;;;5067366;28;20048;-36
2023/04/15 12:44:18;;;;;;;2.53;0.60;;;11.50;99.90;;;;;;5068403;28;20056;-35
2023/04/15 12:46:44;;;;;;;1.80;0.40;;;11.40;99.90;;;;;;5069151;28;20056;-35
2023/04/15 12:49:10;;;;;;;3.55;0.75;;;11.40;99.90;;;;;;5069107;28;20048;-35
2023/04/15 12:51:36;;;;;;;1.75;0.65;;;11.30;99.90;;;;;;5071652;28;20405;-35
2023/04/15 12:54:02;;;;;;;3.78;0.60;;;11.20;99.90;;;;;;5070470;28;20060;-36